Teniente Av. Jorge Henrich Arauz Airport
SLTR : rendu visible

Aérodrome :











RETROUVEZ-NOUS SUR...

 
LOGIN :

S'inscrire | Disclaimer

   EN    FR    IT 

 









Légende :    VFR   VFR Marginal   IFR   IFR Intensif   IFR Très Intensif
Visi : 
Plafond : 
>= 8 km
>= 3000ft
5 à 8 km
1000 à 3000 ft
1500m à 5 km
500 à 1000 ft
800 à 1500m
200 à 500 ft
< 800m
< 200 ft
Symboles :   Orages  Brouillard  Fortes neiges  Fortes précipitations  Vent > 20 kt






- Altitude de l'aérodrome : 509 ft
- Code IATA : TDD


SLTR - Teniente Av. Jorge Henrich Arauz

DERNIER METAR :
  • 282100Z 10003KT 9999 FEW020 FEW023CB SCT200 32/24 Q1007

METARs EXPIRÉS :
  • 282000Z 10003KT 9999 FEW020 FEW023CB BKN200 30/24 Q1008

TAF TAF SLTR
Valide du 28 à 18h jusqu'au 29 à 18h UTC


281650Z 2818/2918 33006KT 9999 SCT020 TX35/2819Z TN23/2910Z
PROB40
TEMPO 2819/2821 7000 VCTSSH FEW023CB
BECMG 2823/2901 00000KT
BECMG 2912/2914 04006KT
FIR SLLF / Amérique du Sud



MET'MAP, la Météo Aéronautique d'un coup d'oeil ! - Copyright ORBIFLY Décembre 2007 - Disclaimer

ORBIFLY MET'MAP TEAM :

Programmation & Développement : Alexandra Zaïnal
Sur une idée originale de : Baudouin d'Aumeries
Assistance à la programmation : Marc-Olivier Méhu
Soutien technique & logistique : Manuel Goepfert

Contact : metmap@orbifly.com




SOURCES & CREDITS :

   NOAA       Earth
Advisory